Kyokushinmaru No.2 — JD2274 — position and weather

sailwx.info

Track history (hours):
 
Tides and Currents Weather Stations Pressure Air Temp Water Temp Dewpoint Dewpoint Depression Visibility Wind Speed Wind Dir Waves Ship Positions

Kyokushinmaru No.2

Last reported at 2017-Nov-15 04:33 UTC. Time now 2017-Nov-22 14:45 UTC.
Position N 34°37' E 135°01'.

Length 58 m; draft 4.6 m.

Type: Tanker. MMSI: 431501862.

Date/timePositionNaut miles runAvg speedWind from/ knotsBaromVisibWave heightAir tempDewpointWater temp
2017-Nov-15 04:33N 34°37' E 135°01'0 8.4
2017-Nov-15 04:30N 34°37' E 135°02'4 8.8
2017-Nov-15 04:00N 34°36' E 135°07'510.6
2017-Nov-15 03:30N 34°35' E 135°13'611.1
2017-Nov-15 03:00N 34°34' E 135°20'5 5.7
2017-Nov-15 02:10N 34°33' E 135°25'0 0.1
2017-Nov-14 22:47N 34°32' E 135°25'1 3.7
2017-Nov-14 22:29N 34°33' E 135°24'3 4.8
2017-Nov-14 21:57N 34°33' E 135°21'0 0.0
2017-Nov-14 21:30N 34°33' E 135°21'0 0.0
2017-Nov-14 20:59N 34°33' E 135°21'0 0.0
2017-Nov-14 20:30N 34°33' E 135°21'0 0.0
2017-Nov-14 20:00N 34°33' E 135°21'0 0.0
2017-Nov-14 19:30N 34°33' E 135°21'0 0.0
2017-Nov-14 19:00N 34°33' E 135°21'0 0.0
2017-Nov-14 18:30N 34°33' E 135°21'0 0.0
2017-Nov-14 18:00N 34°33' E 135°21'0 0.0
2017-Nov-14 17:30N 34°33' E 135°21'0 0.0
2017-Nov-14 16:59N 34°33' E 135°21'0 0.1
2017-Nov-14 16:29N 34°33' E 135°21'0 0.0
2017-Nov-14 16:00N 34°33' E 135°21'0 0.0
2017-Nov-14 15:25N 34°33' E 135°21'0 0.0
2017-Nov-14 14:44N 34°33' E 135°21'0 0.0
2017-Nov-14 14:18N 34°33' E 135°21'0 0.1
2017-Nov-14 13:49N 34°33' E 135°21'3 7.3
2017-Nov-14 13:26N 34°33' E 135°18'510.8
2017-Nov-14 13:00N 34°34' E 135°12'611.4
2017-Nov-14 12:30N 34°35' E 135°06'710.7
2017-Nov-14 11:52N 34°36' E 134°58'15 0.4
2017-Nov-13 02:00N 34°37' E 135°16'612.0
2017-Nov-13 01:30N 34°40' E 135°22'3 1.8
2017-Nov-13 00:07N 34°40' E 135°25'0 0.0
2017-Nov-13 00:00N 34°40' E 135°25'0 0.0
2017-Nov-12 23:28N 34°40' E 135°25'0 0.0
2017-Nov-12 23:00N 34°40' E 135°25'0 1.0
2017-Nov-12 22:30N 34°40' E 135°25'3 5.8
2017-Nov-12 22:00N 34°39' E 135°21'0 0.0
2017-Nov-12 21:30N 34°39' E 135°21'0 0.0
2017-Nov-12 21:00N 34°39' E 135°21'0 0.0
2017-Nov-12 20:30N 34°39' E 135°21'3 5.4
2017-Nov-12 20:00N 34°37' E 135°19'510.5
2017-Nov-12 19:30N 34°33' E 135°15'510.5
2017-Nov-12 19:00N 34°29' E 135°11'510.5
2017-Nov-12 18:29N 34°25' E 135°07'710.8
2017-Nov-12 17:53N 34°20' E 135°02'410.4
2017-Nov-12 17:27N 34°16' E 134°59'410.1
2017-Nov-12 17:01N 34°12' E 134°60'510.3
2017-Nov-12 16:29N 34°06' E 135°00'209 7.9
2017-Nov-11 14:12N 34°49' E 139°08'210.6
2017-Nov-11 14:00N 34°51' E 139°10'2210.4
2017-Nov-11 11:52N 35°03' E 139°32'411.0
2017-Nov-11 11:30N 35°05' E 139°37'611.1
2017-Nov-11 11:00N 35°08' E 139°42'511.0
2017-Nov-11 10:30N 35°12' E 139°46'510.3
2017-Nov-11 09:59N 35°17' E 139°45'510.3
2017-Nov-11 09:30N 35°22' E 139°42'510.2
2017-Nov-11 09:00N 35°26' E 139°46'510.9
2017-Nov-11 08:30N 35°29' E 139°52'2 0.2
2017-Nov-11 01:43N 35°29' E 139°54'511.5
2017-Nov-11 01:17N 35°26' E 139°49'311.6
2017-Nov-11 01:00N 35°24' E 139°46'611.3
2017-Nov-11 00:30N 35°18' E 139°45'611.3
2017-Nov-11 00:00N 35°13' E 139°47'611.7
2017-Nov-10 23:30N 35°08' E 139°44'612.0
2017-Nov-10 23:00N 35°04' E 139°38'612.2
2017-Nov-10 22:30N 34°60' E 139°32'  
2017-Nov-07 06:25N 34°09' E 134°57'511.6
2017-Nov-07 06:00N 34°10' E 135°03'510.3
2017-Nov-07 05:31N 34°10' E 135°09'0 0.0
2017-Nov-07 05:01N 34°10' E 135°09'0 0.0
2017-Nov-07 04:30N 34°10' E 135°09'0 0.1
2017-Nov-07 04:01N 34°10' E 135°09'3 6.4
2017-Nov-07 03:31N 34°13' E 135°07'1 2.8
2017-Nov-07 03:00N 34°13' E 135°09'0 0.0
2017-Nov-07 02:30N 34°13' E 135°09'0 0.0
2017-Nov-07 02:00N 34°13' E 135°09'0 0.0
2017-Nov-07 01:31N 34°13' E 135°09'0 0.0
2017-Nov-07 01:01N 34°13' E 135°09'0 0.0
2017-Nov-07 00:31N 34°13' E 135°09'0 0.0
2017-Nov-07 00:00N 34°13' E 135°09'0 0.0
2017-Nov-06 23:31N 34°13' E 135°09'0 0.0
2017-Nov-06 23:00N 34°13' E 135°09'2 3.1
2017-Nov-06 22:31N 34°12' E 135°07'0 0.3
2017-Nov-06 22:01N 34°12' E 135°07'0 0.0
2017-Nov-06 21:31N 34°12' E 135°07'0 0.0
2017-Nov-06 21:00N 34°12' E 135°07'0 0.0
2017-Nov-06 20:31N 34°12' E 135°07'  
Track history (hours):
 
Tides and Currents Weather Stations Pressure Air Temp Water Temp Dewpoint Dewpoint Depression Visibility Wind Speed Wind Dir Waves Ship Positions

Kyokushinmaru No.2

Last reported at 2017-Nov-15 04:33 UTC. Time now 2017-Nov-22 14:45 UTC.
Position N 34°37' E 135°01'.

Length 58 m; draft 4.6 m.

Type: Tanker. MMSI: 431501862.

Date/timePositionNaut miles runAvg speedWind from/ knotsBaromVisibWave heightAir tempDewpointWater temp
2017-Nov-15 04:33N 34°37' E 135°01'0 8.4
2017-Nov-15 04:30N 34°37' E 135°02'4 8.8
2017-Nov-15 04:00N 34°36' E 135°07'510.6
2017-Nov-15 03:30N 34°35' E 135°13'611.1
2017-Nov-15 03:00N 34°34' E 135°20'5 5.7
2017-Nov-15 02:10N 34°33' E 135°25'0 0.1
2017-Nov-14 22:47N 34°32' E 135°25'1 3.7
2017-Nov-14 22:29N 34°33' E 135°24'3 4.8
2017-Nov-14 21:57N 34°33' E 135°21'0 0.0
2017-Nov-14 21:30N 34°33' E 135°21'0 0.0
2017-Nov-14 20:59N 34°33' E 135°21'0 0.0
2017-Nov-14 20:30N 34°33' E 135°21'0 0.0
2017-Nov-14 20:00N 34°33' E 135°21'0 0.0
2017-Nov-14 19:30N 34°33' E 135°21'0 0.0
2017-Nov-14 19:00N 34°33' E 135°21'0 0.0
2017-Nov-14 18:30N 34°33' E 135°21'0 0.0
2017-Nov-14 18:00N 34°33' E 135°21'0 0.0
2017-Nov-14 17:30N 34°33' E 135°21'0 0.0
2017-Nov-14 16:59N 34°33' E 135°21'0 0.1
2017-Nov-14 16:29N 34°33' E 135°21'0 0.0
2017-Nov-14 16:00N 34°33' E 135°21'0 0.0
2017-Nov-14 15:25N 34°33' E 135°21'0 0.0
2017-Nov-14 14:44N 34°33' E 135°21'0 0.0
2017-Nov-14 14:18N 34°33' E 135°21'0 0.1
2017-Nov-14 13:49N 34°33' E 135°21'3 7.3
2017-Nov-14 13:26N 34°33' E 135°18'510.8
2017-Nov-14 13:00N 34°34' E 135°12'611.4
2017-Nov-14 12:30N 34°35' E 135°06'710.7
2017-Nov-14 11:52N 34°36' E 134°58'15 0.4
2017-Nov-13 02:00N 34°37' E 135°16'612.0
2017-Nov-13 01:30N 34°40' E 135°22'3 1.8
2017-Nov-13 00:07N 34°40' E 135°25'0 0.0
2017-Nov-13 00:00N 34°40' E 135°25'0 0.0
2017-Nov-12 23:28N 34°40' E 135°25'0 0.0
2017-Nov-12 23:00N 34°40' E 135°25'0 1.0
2017-Nov-12 22:30N 34°40' E 135°25'3 5.8
2017-Nov-12 22:00N 34°39' E 135°21'0 0.0
2017-Nov-12 21:30N 34°39' E 135°21'0 0.0
2017-Nov-12 21:00N 34°39' E 135°21'0 0.0
2017-Nov-12 20:30N 34°39' E 135°21'3 5.4
2017-Nov-12 20:00N 34°37' E 135°19'510.5
2017-Nov-12 19:30N 34°33' E 135°15'510.5
2017-Nov-12 19:00N 34°29' E 135°11'510.5
2017-Nov-12 18:29N 34°25' E 135°07'710.8
2017-Nov-12 17:53N 34°20' E 135°02'410.4
2017-Nov-12 17:27N 34°16' E 134°59'410.1
2017-Nov-12 17:01N 34°12' E 134°60'510.3
2017-Nov-12 16:29N 34°06' E 135°00'209 7.9
2017-Nov-11 14:12N 34°49' E 139°08'210.6
2017-Nov-11 14:00N 34°51' E 139°10'2210.4
2017-Nov-11 11:52N 35°03' E 139°32'411.0
2017-Nov-11 11:30N 35°05' E 139°37'611.1
2017-Nov-11 11:00N 35°08' E 139°42'511.0
2017-Nov-11 10:30N 35°12' E 139°46'510.3
2017-Nov-11 09:59N 35°17' E 139°45'510.3
2017-Nov-11 09:30N 35°22' E 139°42'510.2
2017-Nov-11 09:00N 35°26' E 139°46'510.9
2017-Nov-11 08:30N 35°29' E 139°52'2 0.2
2017-Nov-11 01:43N 35°29' E 139°54'511.5
2017-Nov-11 01:17N 35°26' E 139°49'311.6
2017-Nov-11 01:00N 35°24' E 139°46'611.3
2017-Nov-11 00:30N 35°18' E 139°45'611.3
2017-Nov-11 00:00N 35°13' E 139°47'611.7
2017-Nov-10 23:30N 35°08' E 139°44'612.0
2017-Nov-10 23:00N 35°04' E 139°38'612.2
2017-Nov-10 22:30N 34°60' E 139°32'  
2017-Nov-07 06:25N 34°09' E 134°57'511.6
2017-Nov-07 06:00N 34°10' E 135°03'510.3
2017-Nov-07 05:31N 34°10' E 135°09'0 0.0
2017-Nov-07 05:01N 34°10' E 135°09'0 0.0
2017-Nov-07 04:30N 34°10' E 135°09'0 0.1
2017-Nov-07 04:01N 34°10' E 135°09'3 6.4
2017-Nov-07 03:31N 34°13' E 135°07'1 2.8
2017-Nov-07 03:00N 34°13' E 135°09'0 0.0
2017-Nov-07 02:30N 34°13' E 135°09'0 0.0
2017-Nov-07 02:00N 34°13' E 135°09'0 0.0
2017-Nov-07 01:31N 34°13' E 135°09'0 0.0
2017-Nov-07 01:01N 34°13' E 135°09'0 0.0
2017-Nov-07 00:31N 34°13' E 135°09'0 0.0
2017-Nov-07 00:00N 34°13' E 135°09'0 0.0
2017-Nov-06 23:31N 34°13' E 135°09'0 0.0
2017-Nov-06 23:00N 34°13' E 135°09'2 3.1
2017-Nov-06 22:31N 34°12' E 135°07'0 0.3
2017-Nov-06 22:01N 34°12' E 135°07'0 0.0
2017-Nov-06 21:31N 34°12' E 135°07'0 0.0
2017-Nov-06 21:00N 34°12' E 135°07'0 0.0
2017-Nov-06 20:31N 34°12' E 135°07'  

Dump ship's entire track history